Schneifelwetter: Wetterstation Hallschlag, 537 m . NN
Wetterdaten: Montag, 24.09.2012
Datum Zeit Temp. A. Feuchte A. Luftdruck Regen Wind Richtung Richtung Sonnenschein T Regen Taupunkt Windchill
24.09.2012 00:14 11,2 C 85 % 1002 hPa 0,0 l/m 0,4 km/h (0 Bft) O22.5 85 0 min 0 min 8,8 C 11,2 C
24.09.2012 00:29 10,8 C 86 % 1002 hPa 0,0 l/m 5,8 km/h (2 Bft) NO67.5 50 0 min 0 min 8,6 C 10,8 C
24.09.2012 00:44 10,6 C 86 % 1001 hPa 0,0 l/m 6,9 km/h (2 Bft) NO 35 0 min 0 min 8,4 C 10,3 C
24.09.2012 00:59 10,6 C 88 % 1001 hPa 0,0 l/m 7,1 km/h (2 Bft) N22.5 360 0 min 0 min 8,7 C 10,1 C
24.09.2012 01:14 10,4 C 87 % 1001 hPa 0,0 l/m 0,4 km/h (0 Bft) N 360 0 min 0 min 8,3 C 10,4 C
24.09.2012 01:29 10,6 C 89 % 1001 hPa 0,0 l/m 0,7 km/h (0 Bft) N 10 0 min 0 min 8,9 C 10,6 C
24.09.2012 01:44 10,8 C 89 % 1001 hPa 0,0 l/m 0,0 km/h (0 Bft) N 10 0 min 0 min 9,1 C 10,8 C
24.09.2012 01:59 11,0 C 89 % 1000 hPa 0,0 l/m 0,6 km/h (0 Bft) N 5 0 min 0 min 9,3 C 11,0 C
24.09.2012 02:14 11,1 C 90 % 1000 hPa 0,0 l/m 0,8 km/h (0 Bft) S-SW67.5 195 0 min 0 min 9,5 C 11,1 C
24.09.2012 02:29 11,3 C 90 % 1000 hPa 0,0 l/m 6,3 km/h (2 Bft) S45 170 0 min 0 min 9,7 C 11,3 C
24.09.2012 02:44 12,1 C 91 % 1000 hPa 0,0 l/m 16,1 km/h (3 Bft) S45 185 0 min 0 min 10,7 C 7,3 C
24.09.2012 02:59 12,4 C 91 % 999 hPa 0,0 l/m 9,8 km/h (2 Bft) W22.5 260 0 min 0 min 11,0 C 10,4 C
24.09.2012 03:14 12,6 C 91 % 999 hPa 0,0 l/m 13,9 km/h (3 Bft) W-SW67.5 245 0 min 0 min 11,2 C 8,7 C
24.09.2012 03:29 12,9 C 91 % 999 hPa 0,0 l/m 19,9 km/h (4 Bft) S-SW45 205 0 min 0 min 11,5 C 7,1 C
24.09.2012 03:44 13,2 C 91 % 999 hPa 0,0 l/m 19,5 km/h (3 Bft) S22.5 185 0 min 0 min 11,8 C 7,6 C
24.09.2012 03:59 13,2 C 91 % 999 hPa 0,0 l/m 24,5 km/h (4 Bft) S67.5 180 0 min 0 min 11,8 C 6,3 C
24.09.2012 04:14 13,4 C 92 % 999 hPa 0,0 l/m 16,6 km/h (3 Bft) SW67.5 215 0 min 0 min 12,1 C 8,7 C
24.09.2012 04:29 13,5 C 92 % 998 hPa 0,0 l/m 23,8 km/h (4 Bft) S-SW22.5 205 0 min 0 min 12,2 C 6,8 C
24.09.2012 04:44 13,5 C 92 % 998 hPa 0,0 l/m 13,8 km/h (3 Bft) S-SW45 200 0 min 0 min 12,2 C 9,8 C
24.09.2012 04:59 13,2 C 91 % 998 hPa 0,0 l/m 13,8 km/h (3 Bft) S-SW45 195 0 min 0 min 11,8 C 9,5 C
24.09.2012 05:14 13,0 C 91 % 998 hPa 0,0 l/m 11,5 km/h (2 Bft) S22.5 180 0 min 0 min 11,6 C 10,2 C
24.09.2012 05:29 13,1 C 92 % 998 hPa 0,0 l/m 16,0 km/h (3 Bft) S22.5 185 0 min 0 min 11,8 C 8,5 C
24.09.2012 05:44 13,0 C 92 % 997 hPa 0,0 l/m 13,1 km/h (3 Bft) S22.5 170 0 min 0 min 11,7 C 9,5 C
24.09.2012 05:59 12,8 C 93 % 997 hPa 0,0 l/m 21,1 km/h (4 Bft) S-SW45 195 0 min 0 min 11,7 C 6,6 C
24.09.2012 06:14 13,0 C 94 % 997 hPa 0,0 l/m 22,8 km/h (4 Bft) S45 185 0 min 0 min 12,1 C 6,4 C
24.09.2012 06:29 13,0 C 94 % 997 hPa 0,0 l/m 17,1 km/h (3 Bft) S-SW45 210 0 min 0 min 12,1 C 8,0 C
24.09.2012 06:44 13,0 C 94 % 997 hPa 0,0 l/m 21,0 km/h (4 Bft) S45 180 0 min 0 min 12,1 C 6,9 C
24.09.2012 06:59 13,0 C 94 % 997 hPa 0,0 l/m 21,5 km/h (4 Bft) S22.5 170 0 min 0 min 12,1 C 6,8 C
24.09.2012 07:14 13,0 C 95 % 997 hPa 0,0 l/m 17,8 km/h (3 Bft) S22.5 175 0 min 0 min 12,2 C 7,8 C
24.09.2012 07:29 13,0 C 95 % 996 hPa 0,0 l/m 13,1 km/h (3 Bft) S45 175 0 min 0 min 12,2 C 9,5 C
24.09.2012 07:44 13,0 C 95 % 996 hPa 0,0 l/m 12,4 km/h (3 Bft) S45 180 0 min 0 min 12,2 C 9,8 C
24.09.2012 08:00 13,2 C 95 % 996 hPa 0,0 l/m 16,2 km/h (3 Bft) S45 185 0 min 0 min 12,4 C 8,6 C
24.09.2012 08:14 13,5 C 95 % 996 hPa 0,0 l/m 19,9 km/h (4 Bft) S45 175 0 min 0 min 12,7 C 7,8 C
24.09.2012 08:29 13,7 C 95 % 996 hPa 0,0 l/m 14,7 km/h (3 Bft) S22.5 170 0 min 0 min 12,9 C 9,7 C
24.09.2012 08:44 14,0 C 95 % 996 hPa 0,0 l/m 19,1 km/h (3 Bft) S22.5 170 0 min 0 min 13,2 C 8,7 C
24.09.2012 08:59 14,1 C 95 % 996 hPa 0,0 l/m 23,4 km/h (4 Bft) S45 180 0 min 0 min 13,3 C 7,7 C
24.09.2012 09:14 14,4 C 95 % 996 hPa 0,0 l/m 20,3 km/h (4 Bft) S45 170 0 min 0 min 13,6 C 8,9 C
24.09.2012 09:30 14,5 C 95 % 996 hPa 0,0 l/m 17,5 km/h (3 Bft) S45 180 0 min 0 min 13,7 C 9,8 C
24.09.2012 09:44 14,6 C 95 % 996 hPa 0,0 l/m 21,7 km/h (4 Bft) S45 190 0 min 0 min 13,8 C 8,8 C
24.09.2012 09:59 14,8 C 94 % 996 hPa 0,0 l/m 31,0 km/h (5 Bft) S45 170 0 min 0 min 13,8 C 7,2 C
24.09.2012 10:14 15,0 C 94 % 996 hPa 0,0 l/m 26,5 km/h (4 Bft) S45 170 0 min 0 min 14,0 C 8,3 C
24.09.2012 10:29 15,0 C 94 % 996 hPa 0,0 l/m 24,9 km/h (4 Bft) S-SO22.5 165 0 min 0 min 14,0 C 8,6 C
24.09.2012 10:44 15,2 C 94 % 995 hPa 0,9 l/m 28,0 km/h (4 Bft) S45 180 0 min 15 min 14,2 C 8,3 C
24.09.2012 11:00 15,3 C 93 % 995 hPa 0,0 l/m 25,0 km/h (4 Bft) S45 180 0 min 0 min 14,2 C 9,0 C
24.09.2012 11:14 15,3 C 92 % 995 hPa 0,0 l/m 32,6 km/h (5 Bft) S-SW45 195 0 min 0 min 14,0 C 7,7 C
24.09.2012 11:29 15,6 C 92 % 995 hPa 0,0 l/m 27,1 km/h (4 Bft) S-SW67.5 210 0 min 0 min 14,3 C 9,0 C
24.09.2012 11:44 15,8 C 91 % 995 hPa 0,0 l/m 25,5 km/h (4 Bft) S45 180 0 min 0 min 14,3 C 9,6 C
24.09.2012 11:59 16,1 C 90 % 995 hPa 0,0 l/m 28,9 km/h (5 Bft) S45 185 0 min 0 min 14,5 C 9,4 C
24.09.2012 12:15 16,3 C 90 % 994 hPa 0,0 l/m 32,9 km/h (5 Bft) S45 185 0 min 0 min 14,7 C 9,1 C
24.09.2012 12:30 16,1 C 89 % 994 hPa 0,6 l/m 32,1 km/h (5 Bft) S-SW67.5 205 0 min 15 min 14,3 C 8,9 C
24.09.2012 12:44 15,9 C 90 % 994 hPa 0,3 l/m 35,1 km/h (5 Bft) S45 190 0 min 14 min 14,3 C 8,2 C
24.09.2012 12:59 16,0 C 89 % 994 hPa 0,0 l/m 32,6 km/h (5 Bft) S-SW67.5 200 0 min 0 min 14,2 C 8,7 C
24.09.2012 13:14 16,0 C 89 % 994 hPa 0,3 l/m 31,8 km/h (5 Bft) S-SW45 205 0 min 15 min 14,2 C 8,8 C
24.09.2012 13:29 16,5 C 88 % 994 hPa 0,0 l/m 39,8 km/h (6 Bft) S-SW45 210 0 min 0 min 14,5 C 8,6 C
24.09.2012 13:45 15,9 C 86 % 994 hPa 0,0 l/m 46,3 km/h (6 Bft) S-SW67.5 205 0 min 0 min 13,6 C 7,0 C
24.09.2012 14:00 15,6 C 88 % 994 hPa 0,3 l/m 38,1 km/h (5 Bft) SW45 215 0 min 15 min 13,6 C 7,4 C
24.09.2012 14:14 15,8 C 87 % 994 hPa 0,0 l/m 49,8 km/h (6 Bft) SW45 235 0 min 0 min 13,6 C 6,6 C
24.09.2012 14:29 15,7 C 87 % 994 hPa 0,0 l/m 38,6 km/h (5 Bft) W-SW67.5 240 0 min 0 min 13,5 C 7,5 C
24.09.2012 14:44 15,5 C 86 % 994 hPa 0,0 l/m 46,2 km/h (6 Bft) SW67.5 215 0 min 0 min 13,2 C 6,4 C
24.09.2012 14:59 15,6 C 87 % 994 hPa 0,0 l/m 60,2 km/h (7 Bft) SW67.5 215 0 min 0 min 13,4 C 5,7 C
24.09.2012 15:15 15,3 C 87 % 994 hPa 0,0 l/m 48,7 km/h (6 Bft) SW67.5 235 0 min 0 min 13,1 C 5,9 C
24.09.2012 15:30 14,4 C 86 % 994 hPa 0,3 l/m 62,3 km/h (8 Bft) W45 260 0 min 15 min 12,1 C 3,7 C
24.09.2012 15:44 14,1 C 86 % 995 hPa 0,0 l/m 55,1 km/h (7 Bft) W67.5 260 0 min 0 min 11,8 C 3,6 C
24.09.2012 15:59 13,8 C 86 % 995 hPa 0,0 l/m 47,8 km/h (6 Bft) W45 270 0 min 0 min 11,5 C 3,7 C
24.09.2012 16:14 13,6 C 85 % 996 hPa 0,0 l/m 55,4 km/h (7 Bft) W-SW67.5 255 0 min 0 min 11,1 C 2,8 C
24.09.2012 16:29 12,4 C 86 % 997 hPa 0,3 l/m 69,1 km/h (8 Bft) W45 275 0 min 15 min 10,1 C 0,2 C
24.09.2012 16:45 11,8 C 86 % 997 hPa 0,0 l/m 62,0 km/h (8 Bft) W45 260 0 min 0 min 9,5 C -0,4 C
24.09.2012 17:00 11,8 C 86 % 997 hPa 0,0 l/m 52,1 km/h (7 Bft) W-SW45 255 0 min 0 min 9,5 C 0,3 C
24.09.2012 17:14 11,6 C 86 % 998 hPa 0,0 l/m 44,6 km/h (6 Bft) W67.5 260 0 min 0 min 9,3 C 0,7 C
24.09.2012 17:29 11,8 C 84 % 998 hPa 0,0 l/m 56,0 km/h (7 Bft) W-SW45 250 0 min 0 min 9,2 C -0,0 C
24.09.2012 17:44 11,9 C 83 % 998 hPa 0,0 l/m 41,8 km/h (6 Bft) W-SW45 255 0 min 0 min 9,1 C 1,5 C
24.09.2012 17:59 11,6 C 82 % 998 hPa 0,0 l/m 42,8 km/h (6 Bft) W-SW67.5 245 0 min 0 min 8,6 C 0,9 C
24.09.2012 18:15 11,5 C 82 % 998 hPa 0,0 l/m 41,9 km/h (6 Bft) W-SW45 245 0 min 0 min 8,5 C 0,9 C
24.09.2012 18:30 11,4 C 82 % 998 hPa 0,0 l/m 40,5 km/h (6 Bft) SW45 235 0 min 0 min 8,4 C 0,9 C
24.09.2012 18:44 11,3 C 83 % 998 hPa 0,0 l/m 45,2 km/h (6 Bft) SW67.5 235 0 min 0 min 8,5 C 0,2 C
24.09.2012 18:59 11,0 C 85 % 998 hPa 0,0 l/m 32,6 km/h (5 Bft) SW67.5 225 0 min 0 min 8,6 C 1,6 C
24.09.2012 19:14 11,0 C 86 % 999 hPa 0,0 l/m 44,3 km/h (6 Bft) SW67.5 230 0 min 0 min 8,7 C -0,2 C
24.09.2012 19:29 11,0 C 86 % 998 hPa 0,0 l/m 39,6 km/h (6 Bft) SW45 225 0 min 0 min 8,7 C 0,4 C
24.09.2012 19:45 10,8 C 85 % 998 hPa 0,0 l/m 36,3 km/h (5 Bft) SW67.5 230 0 min 0 min 8,4 C 0,6 C
24.09.2012 20:00 10,5 C 86 % 999 hPa 0,0 l/m 41,7 km/h (6 Bft) SW67.5 225 0 min 0 min 8,3 C -0,6 C
24.09.2012 20:14 10,4 C 86 % 999 hPa 0,0 l/m 44,4 km/h (6 Bft) W-SW67.5 240 0 min 0 min 8,2 C -1,1 C
24.09.2012 20:29 10,2 C 86 % 999 hPa 0,0 l/m 37,5 km/h (5 Bft) SW67.5 225 0 min 0 min 8,0 C -0,4 C
24.09.2012 20:44 10,2 C 86 % 999 hPa 0,0 l/m 35,6 km/h (5 Bft) SW45 235 0 min 0 min 8,0 C -0,1 C
24.09.2012 20:59 10,1 C 86 % 999 hPa 0,0 l/m 39,0 km/h (6 Bft) SW45 220 0 min 0 min 7,9 C -0,8 C
24.09.2012 21:15 10,2 C 85 % 999 hPa 0,0 l/m 39,3 km/h (6 Bft) W-SW45 240 0 min 0 min 7,8 C -0,7 C
24.09.2012 21:30 10,2 C 85 % 999 hPa 0,0 l/m 34,5 km/h (5 Bft) SW67.5 225 0 min 0 min 7,8 C 0,1 C
24.09.2012 21:44 10,2 C 85 % 999 hPa 0,0 l/m 39,3 km/h (6 Bft) SW45 230 0 min 0 min 7,8 C -0,7 C
24.09.2012 21:59 10,1 C 85 % 999 hPa 0,0 l/m 38,4 km/h (5 Bft) SW45 230 0 min 0 min 7,7 C -0,7 C
24.09.2012 22:14 10,0 C 85 % 999 hPa 0,0 l/m 34,7 km/h (5 Bft) SW45 225 0 min 0 min 7,6 C -0,3 C
24.09.2012 22:29 10,2 C 85 % 999 hPa 0,0 l/m 38,4 km/h (5 Bft) SW45 220 0 min 0 min 7,8 C -0,6 C
24.09.2012 22:45 10,3 C 85 % 999 hPa 0,0 l/m 34,3 km/h (5 Bft) SW45 215 0 min 0 min 7,9 C 0,2 C
24.09.2012 23:00 10,3 C 85 % 999 hPa 0,0 l/m 42,9 km/h (6 Bft) SW67.5 230 0 min 0 min 7,9 C -1,1 C
24.09.2012 23:14 10,3 C 85 % 999 hPa 0,0 l/m 38,1 km/h (5 Bft) SW67.5 230 0 min 0 min 7,9 C -0,4 C
24.09.2012 23:29 10,3 C 85 % 998 hPa 0,0 l/m 36,8 km/h (5 Bft) SW45 230 0 min 0 min 7,9 C -0,2 C
24.09.2012 23:44 10,3 C 86 % 999 hPa 0,0 l/m 30,3 km/h (5 Bft) SW45 215 0 min 0 min 8,1 C 1,0 C
24.09.2012 23:59 10,6 C 86 % 998 hPa 0,0 l/m 36,5 km/h (5 Bft) SW45 225 0 min 0 min 8,4 C 0,3 C
_ Min-Zeit 22:14 17:59 12:15 - 01:44 - - - - 22:14 20:14
Minimum _ 10,0 C 82 % 994 hPa - 0,0 km/h (0 Bft) - - - - 7,6 C -1,1 C
_ Max-Zeit 13:29 07:14 00:14 10:44 16:29 - - 00:14 10:44 12:15 02:29
Maximum _ 16,5 C 95 % 1002 hPa 0,9 l/m 69,1 km/h
W (8 Bft)
- - 0 min 15 min 14,7 C 11,3 C
Durchschnitt _ 12,8 C 89 % 997 hPa #3,0 l/m 29,5 km/h (5 Bft) S - #0 min. #1:44 h 11,0 C 5,6 C